Time,TemperatureF,DewpointF,PressureIn,WindDirection,WindDirectionDegrees,WindSpeedMPH,WindSpeedGustMPH,Humidity,HourlyPrecipIn,Conditions,Clouds,dailyrainin,SoftwareType,DateUTC
2013-06-18 00:01:00,68.1,61.8,29.96,SW,225,0.0,0.0,80,0.00,,,0.00,WUHU216HW,2013-06-18 04:01:00,
2013-06-18 00:06:00,68.1,61.8,29.96,SW,225,0.0,0.0,80,0.00,,,0.00,WUHU216HW,2013-06-18 04:06:00,
2013-06-18 00:11:00,67.8,61.8,29.96,SW,225,0.0,0.0,81,0.00,,,0.00,WUHU216HW,2013-06-18 04:11:00,
2013-06-18 00:16:00,67.8,61.8,29.96,SW,225,0.0,0.0,81,0.00,,,0.00,WUHU216HW,2013-06-18 04:16:00,
2013-06-18 00:22:00,67.8,61.8,29.96,SW,225,0.0,0.0,81,0.00,,,0.00,WUHU216HW,2013-06-18 04:22:00,
2013-06-18 00:27:00,67.6,61.6,29.96,SW,225,0.0,0.0,81,0.00,,,0.00,WUHU216HW,2013-06-18 04:27:00,
2013-06-18 00:32:00,67.6,61.6,29.95,SW,225,0.0,0.0,81,0.00,,,0.00,WUHU216HW,2013-06-18 04:32:00,
2013-06-18 00:37:00,67.2,61.3,29.95,SW,225,0.0,0.0,81,0.00,,,0.00,WUHU216HW,2013-06-18 04:37:00,
2013-06-18 00:43:00,67.2,61.3,29.95,SW,225,0.0,0.0,81,0.00,,,0.00,WUHU216HW,2013-06-18 04:43:00,
2013-06-18 00:48:00,67.1,61.4,29.95,SW,225,0.0,0.0,82,0.00,,,0.00,WUHU216HW,2013-06-18 04:48:00,
2013-06-18 00:53:00,67.1,61.4,29.95,SW,225,0.0,0.0,82,0.00,,,0.00,WUHU216HW,2013-06-18 04:53:00,
2013-06-18 00:59:00,66.9,61.2,29.95,SW,225,0.0,0.0,82,0.00,,,0.00,WUHU216HW,2013-06-18 04:59:00,
2013-06-18 01:04:00,66.7,61.0,29.93,SW,225,0.0,0.0,82,0.00,,,0.00,WUHU216HW,2013-06-18 05:04:00,
2013-06-18 01:09:00,66.7,61.0,29.94,SW,225,0.0,0.0,82,0.00,,,0.00,WUHU216HW,2013-06-18 05:09:00,
2013-06-18 01:15:00,66.5,61.2,29.94,SW,225,0.0,0.0,83,0.00,,,0.00,WUHU216HW,2013-06-18 05:15:00,
2013-06-18 01:20:00,66.3,61.0,29.94,SW,225,0.0,0.0,83,0.00,,,0.00,WUHU216HW,2013-06-18 05:20:00,
2013-06-18 01:25:00,66.3,61.0,29.93,SW,225,0.0,0.0,83,0.00,,,0.00,WUHU216HW,2013-06-18 05:25:00,
2013-06-18 01:30:00,66.2,60.8,29.93,SW,225,0.0,0.0,83,0.00,,,0.00,WUHU216HW,2013-06-18 05:30:00,
2013-06-18 01:36:00,66.0,61.0,29.93,SW,225,0.0,0.0,84,0.00,,,0.00,WUHU216HW,2013-06-18 05:36:00,
2013-06-18 01:41:00,66.0,61.0,29.93,SW,225,0.0,0.0,84,0.00,,,0.00,WUHU216HW,2013-06-18 05:41:00,
2013-06-18 01:46:00,66.0,61.0,29.92,SW,225,0.0,0.0,84,0.00,,,0.00,WUHU216HW,2013-06-18 05:46:00,
2013-06-18 01:52:00,66.0,61.0,29.92,SW,225,0.0,0.0,84,0.00,,,0.00,WUHU216HW,2013-06-18 05:52:00,
2013-06-18 01:58:00,66.0,61.0,29.92,SW,225,0.0,0.0,84,0.00,,,0.00,WUHU216HW,2013-06-18 05:58:00,
2013-06-18 02:03:00,65.8,60.8,29.92,SW,225,0.0,0.0,84,0.00,,,0.00,WUHU216HW,2013-06-18 06:03:00,
2013-06-18 02:09:00,65.8,60.8,29.92,SW,225,0.0,0.0,84,0.00,,,0.00,WUHU216HW,2013-06-18 06:09:00,
2013-06-18 02:14:00,65.6,60.6,29.92,SW,225,0.0,0.0,84,0.00,,,0.00,WUHU216HW,2013-06-18 06:14:00,
2013-06-18 02:20:00,65.4,60.8,29.92,SW,225,0.0,0.0,85,0.00,,,0.00,WUHU216HW,2013-06-18 06:20:00,
2013-06-18 02:25:00,65.4,60.8,29.91,SW,225,0.0,0.0,85,0.00,,,0.00,WUHU216HW,2013-06-18 06:25:00,
2013-06-18 02:31:00,65.4,60.8,29.92,SW,225,0.0,0.0,85,0.00,,,0.00,WUHU216HW,2013-06-18 06:31:00,
2013-06-18 02:36:00,65.3,60.6,29.91,SW,225,0.0,0.0,85,0.00,,,0.00,WUHU216HW,2013-06-18 06:36:00,
2013-06-18 02:41:00,65.3,60.6,29.91,SW,225,0.0,0.0,85,0.00,,,0.00,WUHU216HW,2013-06-18 06:41:00,
2013-06-18 02:46:00,65.3,60.6,29.91,SW,225,0.0,0.0,85,0.00,,,0.00,WUHU216HW,2013-06-18 06:46:00,
2013-06-18 02:52:00,65.3,60.4,29.91,SW,225,0.0,0.0,85,0.00,,,0.00,WUHU216HW,2013-06-18 06:52:00,
2013-06-18 02:58:00,65.3,60.6,29.91,SW,225,0.0,0.0,85,0.00,,,0.00,WUHU216HW,2013-06-18 06:58:00,
2013-06-18 03:03:00,65.1,60.4,29.91,SW,225,0.0,0.0,85,0.00,,,0.00,WUHU216HW,2013-06-18 07:03:00,
2013-06-18 03:08:00,65.1,60.8,29.91,SW,225,0.0,0.0,86,0.00,,,0.00,WUHU216HW,2013-06-18 07:08:00,
2013-06-18 03:14:00,65.1,60.8,29.90,SW,225,0.0,0.0,86,0.00,,,0.00,WUHU216HW,2013-06-18 07:14:00,
2013-06-18 03:19:00,65.1,60.8,29.91,SW,225,0.0,0.0,86,0.00,,,0.00,WUHU216HW,2013-06-18 07:19:00,
2013-06-18 03:24:00,64.9,60.6,29.90,SW,225,0.0,0.0,86,0.00,,,0.00,WUHU216HW,2013-06-18 07:24:00,
2013-06-18 03:30:00,64.9,60.6,29.90,SW,225,0.0,0.0,86,0.00,,,0.00,WUHU216HW,2013-06-18 07:30:00,
2013-06-18 03:36:00,64.9,60.6,29.90,SW,225,0.0,0.0,86,0.00,,,0.00,WUHU216HW,2013-06-18 07:36:00,
2013-06-18 03:41:00,64.9,60.6,29.90,SW,225,0.0,0.0,86,0.00,,,0.00,WUHU216HW,2013-06-18 07:41:00,
2013-06-18 03:47:00,64.9,60.6,29.90,SW,225,0.0,0.0,86,0.00,,,0.00,WUHU216HW,2013-06-18 07:47:00,
2013-06-18 03:53:00,64.7,60.8,29.90,SW,225,0.0,0.0,87,0.00,,,0.00,WUHU216HW,2013-06-18 07:53:00,
2013-06-18 03:58:00,64.7,60.8,29.90,SW,225,0.0,0.0,87,0.00,,,0.00,WUHU216HW,2013-06-18 07:58:00,
2013-06-18 04:04:00,64.7,60.8,29.90,SW,225,0.0,0.0,87,0.00,,,0.00,WUHU216HW,2013-06-18 08:04:00,
2013-06-18 04:09:00,64.7,60.8,29.90,SW,225,0.0,0.0,87,0.00,,,0.00,WUHU216HW,2013-06-18 08:09:00,
2013-06-18 04:14:00,64.7,60.8,29.90,SW,225,0.0,0.0,87,0.00,,,0.00,WUHU216HW,2013-06-18 08:14:00,
2013-06-18 04:20:00,64.7,60.8,29.90,SW,225,0.0,0.0,87,0.00,,,0.00,WUHU216HW,2013-06-18 08:20:00,
2013-06-18 04:25:00,64.5,60.6,29.90,SW,225,0.0,0.0,87,0.00,,,0.00,WUHU216HW,2013-06-18 08:25:00,
2013-06-18 04:30:00,64.5,60.6,29.90,SW,225,0.0,0.0,87,0.00,,,0.00,WUHU216HW,2013-06-18 08:30:00,
2013-06-18 04:35:00,64.5,60.6,29.90,SW,225,0.0,0.0,87,0.00,,,0.00,WUHU216HW,2013-06-18 08:35:00,
2013-06-18 04:41:00,64.5,60.6,29.90,SW,225,0.0,0.0,87,0.00,,,0.00,WUHU216HW,2013-06-18 08:41:00,
2013-06-18 04:52:00,64.5,60.9,29.91,SW,225,0.0,0.0,88,0.00,,,0.00,WUHU216HW,2013-06-18 08:52:00,
2013-06-18 04:57:00,64.5,60.9,29.91,SW,225,0.0,0.0,88,0.00,,,0.00,WUHU216HW,2013-06-18 08:57:00,
2013-06-18 05:03:00,64.5,60.9,29.91,SW,225,0.0,0.0,88,0.00,,,0.00,WUHU216HW,2013-06-18 09:03:00,
2013-06-18 05:09:00,64.5,60.9,29.91,SW,225,0.0,0.0,88,0.00,,,0.00,WUHU216HW,2013-06-18 09:09:00,
2013-06-18 05:14:00,64.5,60.9,29.91,SW,225,0.0,0.0,88,0.00,,,0.00,WUHU216HW,2013-06-18 09:14:00,
2013-06-18 05:19:00,64.5,60.9,29.91,SW,225,0.0,0.0,88,0.00,,,0.00,WUHU216HW,2013-06-18 09:19:00,
2013-06-18 05:24:00,64.5,60.9,29.92,SW,225,0.0,0.0,88,0.00,,,0.00,WUHU216HW,2013-06-18 09:24:00,
2013-06-18 05:30:00,64.5,60.9,29.92,SW,225,0.0,0.0,88,0.00,,,0.00,WUHU216HW,2013-06-18 09:30:00,
2013-06-18 05:35:00,64.5,60.9,29.92,SW,225,0.0,0.0,88,0.00,,,0.00,WUHU216HW,2013-06-18 09:35:00,
2013-06-18 05:40:00,64.5,60.9,29.92,SW,225,0.0,0.0,88,0.00,,,0.00,WUHU216HW,2013-06-18 09:40:00,
2013-06-18 05:45:00,64.5,60.9,29.92,SW,225,0.0,0.0,88,0.00,,,0.00,WUHU216HW,2013-06-18 09:45:00,
2013-06-18 05:51:00,64.2,60.6,29.92,SW,225,0.0,0.0,88,0.00,,,0.00,WUHU216HW,2013-06-18 09:51:00,
2013-06-18 05:57:00,64.2,60.6,29.92,SW,225,0.0,0.0,88,0.00,,,0.00,WUHU216HW,2013-06-18 09:57:00,
2013-06-18 06:02:00,64.2,60.6,29.92,SW,225,0.0,0.0,88,0.00,,,0.00,WUHU216HW,2013-06-18 10:02:00,
2013-06-18 06:07:00,64.2,60.6,29.93,SW,225,0.0,0.0,88,0.00,,,0.00,WUHU216HW,2013-06-18 10:07:00,
2013-06-18 06:13:00,64.2,60.6,29.92,SW,225,0.0,0.0,88,0.00,,,0.00,WUHU216HW,2013-06-18 10:13:00,
2013-06-18 06:19:00,64.2,60.6,29.92,SW,225,0.0,0.0,88,0.00,,,0.00,WUHU216HW,2013-06-18 10:19:00,
2013-06-18 06:24:00,64.2,60.9,29.92,SW,225,0.0,0.0,89,0.00,,,0.00,WUHU216HW,2013-06-18 10:24:00,
2013-06-18 06:30:00,64.2,60.9,29.92,SW,225,0.0,0.0,89,0.00,,,0.00,WUHU216HW,2013-06-18 10:30:00,
2013-06-18 06:35:00,64.2,60.9,29.92,SW,225,0.0,0.0,89,0.00,,,0.00,WUHU216HW,2013-06-18 10:35:00,
2013-06-18 06:41:00,64.2,60.9,29.92,SW,225,0.0,0.0,89,0.00,,,0.00,WUHU216HW,2013-06-18 10:41:00,
2013-06-18 06:46:00,64.4,60.9,29.92,SW,225,0.0,0.0,89,0.00,,,0.00,WUHU216HW,2013-06-18 10:46:00,
2013-06-18 06:52:00,64.5,61.3,29.92,SW,225,0.0,0.0,89,0.00,,,0.00,WUHU216HW,2013-06-18 10:52:00,
2013-06-18 06:58:00,64.7,61.5,29.92,SW,225,0.0,0.0,89,0.00,,,0.00,WUHU216HW,2013-06-18 10:58:00,
2013-06-18 07:03:00,64.9,61.6,29.92,SW,225,0.0,0.0,89,0.00,,,0.00,WUHU216HW,2013-06-18 11:03:00,
2013-06-18 07:09:00,64.9,62.0,29.92,SW,225,0.0,0.0,90,0.00,,,0.00,WUHU216HW,2013-06-18 11:09:00,
2013-06-18 07:14:00,65.3,62.3,29.92,SW,225,0.0,0.0,90,0.00,,,0.00,WUHU216HW,2013-06-18 11:14:00,
2013-06-18 07:19:00,65.3,62.3,29.92,SW,225,0.0,0.0,90,0.00,,,0.00,WUHU216HW,2013-06-18 11:19:00,
2013-06-18 07:24:00,65.4,62.4,29.93,SW,225,0.0,0.0,90,0.00,,,0.00,WUHU216HW,2013-06-18 11:24:00,
2013-06-18 07:30:00,65.4,62.4,29.92,SW,225,0.0,0.0,90,0.00,,,0.00,WUHU216HW,2013-06-18 11:30:00,
2013-06-18 07:40:00,65.8,62.8,29.92,SW,225,0.0,0.0,90,0.00,,,0.00,WUHU216HW,2013-06-18 11:40:00,
2013-06-18 07:46:00,66.0,62.9,29.92,SW,225,0.0,0.0,90,0.00,,,0.00,WUHU216HW,2013-06-18 11:46:00,
2013-06-18 07:51:00,66.0,62.9,29.92,SW,225,0.0,0.0,90,0.00,,,0.00,WUHU216HW,2013-06-18 11:51:00,
2013-06-18 07:57:00,66.0,62.9,29.92,SW,225,0.0,0.0,90,0.00,,,0.00,WUHU216HW,2013-06-18 11:57:00,
2013-06-18 08:03:00,66.0,62.9,29.92,SW,225,0.0,0.0,90,0.00,,,0.00,WUHU216HW,2013-06-18 12:03:00,
2013-06-18 08:09:00,66.2,63.1,29.92,SW,225,0.0,0.0,90,0.00,,,0.00,WUHU216HW,2013-06-18 12:09:00,
2013-06-18 08:15:00,66.3,63.3,29.92,SW,225,0.0,0.0,90,0.00,,,0.00,WUHU216HW,2013-06-18 12:15:00,
2013-06-18 08:20:00,66.3,63.3,29.92,SW,225,0.0,0.0,90,0.00,,,0.00,WUHU216HW,2013-06-18 12:20:00,
2013-06-18 08:25:00,66.5,63.5,29.92,SW,225,0.0,0.0,90,0.00,,,0.00,WUHU216HW,2013-06-18 12:25:00,
2013-06-18 08:31:00,66.7,63.6,29.92,SW,225,0.0,0.0,90,0.00,,,0.00,WUHU216HW,2013-06-18 12:31:00,
2013-06-18 08:36:00,66.7,63.6,29.93,SW,225,0.0,0.0,90,0.00,,,0.00,WUHU216HW,2013-06-18 12:36:00,
2013-06-18 08:42:00,66.9,63.8,29.93,SW,225,0.0,0.0,90,0.00,,,0.00,WUHU216HW,2013-06-18 12:42:00,
2013-06-18 08:47:00,66.9,63.8,29.93,SW,225,0.0,0.0,90,0.00,,,0.00,WUHU216HW,2013-06-18 12:47:00,
2013-06-18 08:52:00,67.1,64.0,29.93,SW,225,0.0,0.0,90,0.00,,,0.00,WUHU216HW,2013-06-18 12:52:00,
2013-06-18 08:57:00,66.9,63.8,29.93,SW,225,0.0,0.0,90,0.00,,,0.00,WUHU216HW,2013-06-18 12:57:00,
2013-06-18 09:02:00,67.1,64.0,29.93,SW,225,0.0,0.0,90,0.00,,,0.00,WUHU216HW,2013-06-18 13:02:00,
2013-06-18 09:08:00,67.2,64.2,29.92,WSW,248,0.0,0.0,90,0.00,,,0.00,WUHU216HW,2013-06-18 13:08:00,
2013-06-18 09:13:00,67.2,64.2,29.92,NW,315,0.0,0.0,90,0.00,,,0.00,WUHU216HW,2013-06-18 13:13:00,
2013-06-18 09:19:00,67.6,64.5,29.92,North,0,0.0,0.0,90,0.00,,,0.00,WUHU216HW,2013-06-18 13:19:00,
2013-06-18 09:25:00,67.6,64.5,29.92,North,0,0.0,0.0,90,0.00,,,0.00,WUHU216HW,2013-06-18 13:25:00,
2013-06-18 09:30:00,67.8,64.7,29.92,North,0,0.0,0.0,90,0.00,,,0.00,WUHU216HW,2013-06-18 13:30:00,
2013-06-18 09:36:00,68.1,65.1,29.92,SW,225,0.0,0.0,90,0.00,,,0.00,WUHU216HW,2013-06-18 13:36:00,
2013-06-18 09:41:00,68.5,65.1,29.93,WSW,248,0.0,0.0,89,0.00,,,0.00,WUHU216HW,2013-06-18 13:41:00,
2013-06-18 09:46:00,68.5,65.1,29.92,WSW,248,0.0,0.0,89,0.00,,,0.00,WUHU216HW,2013-06-18 13:46:00,
2013-06-18 09:52:00,68.7,65.3,29.92,West,270,0.0,0.0,89,0.00,,,0.00,WUHU216HW,2013-06-18 13:52:00,
2013-06-18 09:58:00,68.9,65.4,29.92,WSW,248,0.0,0.0,89,0.00,,,0.00,WUHU216HW,2013-06-18 13:58:00,
2013-06-18 10:03:00,69.2,65.8,29.92,SSW,203,0.0,0.0,89,0.00,,,0.00,WUHU216HW,2013-06-18 14:03:00,
2013-06-18 10:09:00,69.6,66.0,29.92,SSW,203,0.0,0.0,89,0.00,,,0.00,WUHU216HW,2013-06-18 14:09:00,
2013-06-18 10:14:00,69.8,66.0,29.92,SSW,203,0.0,0.0,88,0.00,,,0.00,WUHU216HW,2013-06-18 14:14:00,
2013-06-18 10:19:00,70.1,66.4,29.92,WSW,248,0.0,0.0,88,0.00,,,0.00,WUHU216HW,2013-06-18 14:19:00,
2013-06-18 10:24:00,70.5,66.4,29.91,WNW,293,0.0,0.0,87,0.00,,,0.00,WUHU216HW,2013-06-18 14:24:00,
2013-06-18 10:30:00,70.7,66.6,29.91,WNW,293,0.0,0.0,87,0.00,,,0.00,WUHU216HW,2013-06-18 14:30:00,
2013-06-18 10:35:00,71.2,66.8,29.91,WNW,293,0.0,0.0,86,0.00,,,0.00,WUHU216HW,2013-06-18 14:35:00,
2013-06-18 10:40:00,71.4,66.9,29.91,WNW,293,0.0,0.0,86,0.00,,,0.00,WUHU216HW,2013-06-18 14:40:00,
2013-06-18 10:46:00,71.6,66.8,29.90,WNW,293,0.0,0.0,85,0.00,,,0.00,WUHU216HW,2013-06-18 14:46:00,
2013-06-18 10:51:00,71.7,67.0,29.91,WNW,293,0.0,0.0,85,0.00,,,0.00,WUHU216HW,2013-06-18 14:51:00,
2013-06-18 10:56:00,71.9,67.1,29.91,WNW,293,0.0,0.0,85,0.00,,,0.00,WUHU216HW,2013-06-18 14:56:00,
2013-06-18 11:01:00,71.9,66.8,29.90,NNW,338,0.0,0.0,84,0.00,,,0.00,WUHU216HW,2013-06-18 15:01:00,
2013-06-18 11:07:00,71.9,66.8,29.90,NNW,338,0.0,0.0,84,0.00,,,0.00,WUHU216HW,2013-06-18 15:07:00,
2013-06-18 11:12:00,72.1,67.0,29.90,NNW,338,0.0,0.0,84,0.00,,,0.00,WUHU216HW,2013-06-18 15:12:00,
2013-06-18 11:17:00,72.1,67.0,29.90,NNW,338,0.0,0.0,84,0.00,,,0.00,WUHU216HW,2013-06-18 15:17:00,
2013-06-18 11:23:00,72.1,66.6,29.91,NNW,338,0.0,0.0,83,0.00,,,0.00,WUHU216HW,2013-06-18 15:23:00,
2013-06-18 11:28:00,72.1,66.6,29.91,NNW,338,0.0,0.0,83,0.00,,,0.00,WUHU216HW,2013-06-18 15:28:00,
2013-06-18 11:33:00,72.3,67.2,29.92,NNW,338,0.0,0.0,84,0.00,,,0.00,WUHU216HW,2013-06-18 15:33:00,
2013-06-18 11:39:00,72.5,67.3,29.92,NNW,338,0.0,0.0,84,0.00,,,0.00,WUHU216HW,2013-06-18 15:39:00,
2013-06-18 11:45:00,73.0,67.9,29.92,NNW,338,0.0,0.0,84,0.00,,,0.00,WUHU216HW,2013-06-18 15:45:00,
2013-06-18 11:51:00,73.4,68.2,29.92,WSW,248,0.0,0.0,84,0.00,,,0.00,WUHU216HW,2013-06-18 15:51:00,
2013-06-18 11:56:00,73.7,68.1,29.92,WSW,248,0.0,0.0,83,0.00,,,0.00,WUHU216HW,2013-06-18 15:56:00,
2013-06-18 12:01:00,73.7,67.9,29.92,NNW,338,0.0,0.0,82,0.00,,,0.00,WUHU216HW,2013-06-18 16:01:00,
2013-06-18 12:07:00,73.9,68.4,29.92,NW,315,0.0,0.0,83,0.00,,,0.00,WUHU216HW,2013-06-18 16:07:00,
2013-06-18 12:12:00,74.1,68.6,29.92,NW,315,0.0,0.0,83,0.00,,,0.00,WUHU216HW,2013-06-18 16:12:00,
2013-06-18 12:17:00,74.4,69.0,29.92,NW,315,0.0,0.0,83,0.00,,,0.00,WUHU216HW,2013-06-18 16:17:00,
2013-06-18 12:22:00,74.8,69.0,29.92,NNW,338,0.0,0.0,82,0.00,,,0.00,WUHU216HW,2013-06-18 16:22:00,
2013-06-18 12:28:00,75.2,69.4,29.92,SW,225,0.0,0.0,82,0.00,,,0.00,WUHU216HW,2013-06-18 16:28:00,
2013-06-18 12:33:00,75.7,69.5,29.92,SW,225,0.0,0.0,81,0.00,,,0.00,WUHU216HW,2013-06-18 16:33:00,
2013-06-18 12:43:00,75.7,69.2,29.91,West,270,0.0,0.0,80,0.00,,,0.00,WUHU216HW,2013-06-18 16:43:00,
2013-06-18 12:49:00,75.9,69.3,29.91,WSW,248,0.0,0.0,80,0.00,,,0.00,WUHU216HW,2013-06-18 16:49:00,
2013-06-18 12:55:00,76.1,69.5,29.91,WSW,248,0.0,0.0,80,0.00,,,0.00,WUHU216HW,2013-06-18 16:55:00,
2013-06-18 13:00:00,76.2,69.6,29.92,WSW,248,0.0,0.0,80,0.00,,,0.00,WUHU216HW,2013-06-18 17:00:00,
2013-06-18 13:06:00,76.6,70.0,29.91,SW,225,0.0,0.0,80,0.00,,,0.00,WUHU216HW,2013-06-18 17:06:00,
2013-06-18 13:11:00,76.8,70.1,29.91,SW,225,0.0,0.0,80,0.00,,,0.00,WUHU216HW,2013-06-18 17:11:00,
2013-06-18 13:17:00,77.0,70.3,29.91,SW,225,0.0,0.0,80,0.00,,,0.00,WUHU216HW,2013-06-18 17:17:00,
2013-06-18 13:23:00,76.8,69.7,29.92,SSE,158,0.0,0.0,79,0.00,,,0.00,WUHU216HW,2013-06-18 17:23:00,
2013-06-18 13:29:00,77.1,70.5,29.92,SSE,158,0.0,0.0,80,0.00,,,0.00,WUHU216HW,2013-06-18 17:29:00,
2013-06-18 13:35:00,77.3,70.3,29.91,SSE,158,0.0,0.0,79,0.00,,,0.00,WUHU216HW,2013-06-18 17:35:00,
2013-06-18 13:40:00,77.3,70.3,29.91,WSW,248,0.0,0.0,79,0.00,,,0.00,WUHU216HW,2013-06-18 17:40:00,
2013-06-18 13:46:00,77.1,69.7,29.91,SW,225,0.0,0.0,78,0.00,,,0.00,WUHU216HW,2013-06-18 17:46:00,
2013-06-18 13:51:00,77.1,70.1,29.92,WSW,248,0.0,0.0,79,0.00,,,0.00,WUHU216HW,2013-06-18 17:51:00,
2013-06-18 13:57:00,77.3,70.3,29.92,NW,315,0.0,0.0,79,0.00,,,0.00,WUHU216HW,2013-06-18 17:57:00,
2013-06-18 14:02:00,77.5,70.1,29.92,WSW,248,0.0,0.0,78,0.00,,,0.00,WUHU216HW,2013-06-18 18:02:00,
2013-06-18 14:07:00,77.9,70.4,29.92,WSW,248,0.0,0.0,78,0.00,,,0.00,WUHU216HW,2013-06-18 18:07:00,
2013-06-18 14:13:00,78.4,70.5,29.92,SSW,203,0.0,0.0,77,0.00,,,0.00,WUHU216HW,2013-06-18 18:13:00,
2013-06-18 14:18:00,78.9,70.7,29.91,West,270,0.0,0.0,76,0.00,,,0.00,WUHU216HW,2013-06-18 18:18:00,
2013-06-18 14:29:00,79.7,71.4,29.91,SSW,203,0.0,0.0,76,0.00,,,0.00,WUHU216HW,2013-06-18 18:29:00,
2013-06-18 14:34:00,79.8,70.8,29.90,SW,225,0.0,0.0,74,0.00,,,0.00,WUHU216HW,2013-06-18 18:34:00,
2013-06-18 14:40:00,79.8,70.8,29.90,WSW,248,0.0,0.0,74,0.00,,,0.00,WUHU216HW,2013-06-18 18:40:00,
2013-06-18 14:45:00,79.8,70.8,29.90,West,270,0.0,0.0,74,0.00,,,0.00,WUHU216HW,2013-06-18 18:45:00,
2013-06-18 14:51:00,79.8,70.8,29.90,SSW,203,0.0,0.0,74,0.00,,,0.00,WUHU216HW,2013-06-18 18:51:00,
2013-06-18 14:56:00,80.4,71.3,29.90,SSW,203,0.0,0.0,74,0.00,,,0.00,WUHU216HW,2013-06-18 18:56:00,
2013-06-18 15:01:00,80.7,71.3,29.89,NW,315,0.0,0.0,73,0.00,,,0.00,WUHU216HW,2013-06-18 19:01:00,
2013-06-18 15:06:00,80.9,71.0,29.89,WNW,293,0.0,0.0,72,0.00,,,0.00,WUHU216HW,2013-06-18 19:06:00,
2013-06-18 15:12:00,81.3,71.0,29.89,WSW,248,0.0,0.0,71,0.00,,,0.00,WUHU216HW,2013-06-18 19:12:00,
2013-06-18 15:17:00,81.5,71.1,29.89,SW,225,0.0,0.0,71,0.00,,,0.00,WUHU216HW,2013-06-18 19:17:00,
2013-06-18 15:22:00,82.5,71.7,29.89,WSW,248,0.0,0.0,70,0.00,,,0.00,WUHU216HW,2013-06-18 19:22:00,
2013-06-18 15:27:00,82.9,72.1,29.89,SW,225,0.0,0.0,70,0.00,,,0.00,WUHU216HW,2013-06-18 19:27:00,
2013-06-18 15:33:00,83.1,71.4,29.88,WSW,248,0.0,0.0,68,0.00,,,0.00,WUHU216HW,2013-06-18 19:33:00,
2013-06-18 15:38:00,82.9,71.2,29.88,WNW,293,0.0,0.0,68,0.00,,,0.00,WUHU216HW,2013-06-18 19:38:00,
2013-06-18 15:44:00,82.5,70.8,29.89,SW,225,0.0,0.0,68,0.00,,,0.00,WUHU216HW,2013-06-18 19:44:00,
2013-06-18 15:49:00,82.2,70.9,29.89,SSW,203,0.0,0.0,69,0.00,,,0.00,WUHU216HW,2013-06-18 19:49:00,
2013-06-18 15:54:00,82.0,70.8,29.89,SW,225,0.0,0.0,69,0.00,,,0.00,WUHU216HW,2013-06-18 19:54:00,
2013-06-18 16:00:00,81.5,70.3,29.88,SW,225,0.0,0.0,69,0.00,,,0.00,WUHU216HW,2013-06-18 20:00:00,
2013-06-18 16:05:00,80.9,69.8,29.88,WSW,248,0.0,0.0,69,0.00,,,0.00,WUHU216HW,2013-06-18 20:05:00,
2013-06-18 16:10:00,80.4,69.8,29.89,SW,225,0.0,0.0,70,0.00,,,0.00,WUHU216HW,2013-06-18 20:10:00,
2013-06-18 16:16:00,80.2,69.6,29.89,South,180,0.0,0.0,70,0.00,,,0.00,WUHU216HW,2013-06-18 20:16:00,
2013-06-18 16:21:00,79.7,69.0,29.88,South,180,0.0,0.0,70,0.00,,,0.00,WUHU216HW,2013-06-18 20:21:00,
2013-06-18 16:27:00,79.3,69.1,29.89,South,180,0.0,0.0,71,0.00,,,0.00,WUHU216HW,2013-06-18 20:27:00,
2013-06-18 16:32:00,78.6,68.7,29.89,SW,225,0.0,0.0,72,0.00,,,0.00,WUHU216HW,2013-06-18 20:32:00,
2013-06-18 16:38:00,77.9,68.1,29.88,SW,225,0.0,0.0,72,0.00,,,0.00,WUHU216HW,2013-06-18 20:38:00,
2013-06-18 16:43:00,77.1,68.0,29.88,South,180,0.0,0.0,73,0.00,,,0.00,WUHU216HW,2013-06-18 20:43:00,
2013-06-18 16:49:00,76.6,67.7,29.88,WNW,293,0.0,0.0,74,0.02,,,0.02,WUHU216HW,2013-06-18 20:49:00,
2013-06-18 16:54:00,75.7,67.6,29.90,ENE,68,0.0,0.0,76,0.02,,,0.02,WUHU216HW,2013-06-18 20:54:00,
2013-06-18 17:01:00,74.4,66.8,29.89,NNE,23,0.0,0.0,77,0.02,,,0.02,WUHU216HW,2013-06-18 21:01:00,
2013-06-18 17:06:00,73.2,65.9,29.90,North,0,0.0,0.0,78,0.06,,,0.06,WUHU216HW,2013-06-18 21:06:00,
2013-06-18 17:11:00,72.3,65.4,29.90,WNW,293,0.0,0.0,79,0.06,,,0.06,WUHU216HW,2013-06-18 21:11:00,
2013-06-18 17:17:00,71.7,64.9,29.89,WSW,248,0.0,0.0,79,0.06,,,0.06,WUHU216HW,2013-06-18 21:17:00,
2013-06-18 17:23:00,71.2,64.3,29.89,WNW,293,0.0,0.0,79,0.06,,,0.06,WUHU216HW,2013-06-18 21:23:00,
2013-06-18 17:29:00,71.0,64.5,29.89,SW,225,0.0,0.0,80,0.06,,,0.06,WUHU216HW,2013-06-18 21:29:00,
2013-06-18 17:35:00,70.8,64.7,29.90,SW,225,0.0,0.0,81,0.06,,,0.06,WUHU216HW,2013-06-18 21:35:00,
2013-06-18 17:41:00,71.2,65.1,29.90,NNW,338,0.0,0.0,81,0.08,,,0.08,WUHU216HW,2013-06-18 21:41:00,
2013-06-18 17:47:00,70.8,64.7,29.90,North,0,0.0,0.0,81,0.06,,,0.08,WUHU216HW,2013-06-18 21:47:00,
2013-06-18 17:52:00,70.5,64.3,29.90,NNE,23,0.0,0.0,81,0.06,,,0.08,WUHU216HW,2013-06-18 21:52:00,
2013-06-18 17:57:00,70.1,64.0,29.90,NNE,23,0.0,0.0,81,0.06,,,0.08,WUHU216HW,2013-06-18 21:57:00,
2013-06-18 18:03:00,69.8,64.0,29.90,West,270,0.0,0.0,82,0.02,,,0.08,WUHU216HW,2013-06-18 22:03:00,
2013-06-18 18:09:00,69.8,64.0,29.90,West,270,0.0,0.0,82,0.02,,,0.08,WUHU216HW,2013-06-18 22:09:00,
2013-06-18 18:14:00,69.6,63.8,29.90,West,270,0.0,0.0,82,0.02,,,0.08,WUHU216HW,2013-06-18 22:14:00,
2013-06-18 18:19:00,69.6,63.8,29.90,West,270,0.0,0.0,82,0.02,,,0.08,WUHU216HW,2013-06-18 22:19:00,
2013-06-18 18:24:00,69.6,64.1,29.90,West,270,0.0,0.0,83,0.02,,,0.08,WUHU216HW,2013-06-18 22:24:00,
2013-06-18 18:29:00,69.6,64.1,29.90,WNW,293,0.0,0.0,83,0.02,,,0.08,WUHU216HW,2013-06-18 22:29:00,
2013-06-18 18:35:00,69.8,64.3,29.90,South,180,0.0,0.0,83,0.02,,,0.08,WUHU216HW,2013-06-18 22:35:00,
2013-06-18 18:40:00,70.1,64.7,29.90,South,180,0.0,0.0,83,0.00,,,0.08,WUHU216HW,2013-06-18 22:40:00,
2013-06-18 18:46:00,70.5,65.4,29.90,SSW,203,0.0,0.0,84,0.00,,,0.08,WUHU216HW,2013-06-18 22:46:00,
2013-06-18 18:51:00,71.0,65.9,29.90,SSW,203,0.0,0.0,84,0.00,,,0.08,WUHU216HW,2013-06-18 22:51:00,
2013-06-18 18:56:00,71.4,66.3,29.90,West,270,0.0,0.0,84,0.00,,,0.08,WUHU216HW,2013-06-18 22:56:00,
2013-06-18 19:01:00,71.4,65.9,29.90,NW,315,0.0,0.0,83,0.00,,,0.08,WUHU216HW,2013-06-18 23:01:00,
2013-06-18 19:07:00,71.4,65.9,29.90,NW,315,0.0,0.0,83,0.00,,,0.08,WUHU216HW,2013-06-18 23:07:00,
2013-06-18 19:12:00,71.4,65.9,29.90,NW,315,0.0,0.0,83,0.00,,,0.08,WUHU216HW,2013-06-18 23:12:00,
2013-06-18 19:17:00,71.6,66.1,29.90,West,270,0.0,0.0,83,0.00,,,0.08,WUHU216HW,2013-06-18 23:17:00,
2013-06-18 19:23:00,71.7,66.3,29.90,WSW,248,0.0,0.0,83,0.00,,,0.08,WUHU216HW,2013-06-18 23:23:00,
2013-06-18 19:34:00,71.7,66.3,29.90,WSW,248,0.0,0.0,83,0.00,,,0.08,WUHU216HW,2013-06-18 23:34:00,
2013-06-18 19:40:00,71.7,66.3,29.90,WSW,248,0.0,0.0,83,0.00,,,0.08,WUHU216HW,2013-06-18 23:40:00,
2013-06-18 19:46:00,71.4,65.9,29.91,WSW,248,0.0,0.0,83,0.00,,,0.08,WUHU216HW,2013-06-18 23:46:00,
2013-06-18 19:52:00,71.2,65.7,29.91,WSW,248,0.0,0.0,83,0.00,,,0.08,WUHU216HW,2013-06-18 23:52:00,
2013-06-18 19:57:00,71.2,66.1,29.91,WSW,248,0.0,0.0,84,0.00,,,0.08,WUHU216HW,2013-06-18 23:57:00,
2013-06-18 20:02:00,70.8,65.7,29.91,WSW,248,0.0,0.0,84,0.00,,,0.08,WUHU216HW,2013-06-19 00:02:00,
2013-06-18 20:07:00,70.7,65.5,29.91,WSW,248,0.0,0.0,84,0.00,,,0.08,WUHU216HW,2013-06-19 00:07:00,
2013-06-18 20:12:00,70.5,65.4,29.92,WSW,248,0.0,0.0,84,0.00,,,0.08,WUHU216HW,2013-06-19 00:12:00,
2013-06-18 20:18:00,70.3,65.2,29.91,WSW,248,0.0,0.0,84,0.00,,,0.08,WUHU216HW,2013-06-19 00:18:00,
2013-06-18 20:23:00,70.3,65.5,29.92,WSW,248,0.0,0.0,85,0.00,,,0.08,WUHU216HW,2013-06-19 00:23:00,
2013-06-18 20:30:00,69.9,64.8,29.92,WSW,248,0.0,0.0,84,0.00,,,0.08,WUHU216HW,2013-06-19 00:30:00,
2013-06-18 20:40:00,69.6,64.8,29.92,WSW,248,0.0,0.0,85,0.00,,,0.08,WUHU216HW,2013-06-19 00:40:00,
2013-06-18 20:46:00,69.4,64.6,29.92,WSW,248,0.0,0.0,85,0.00,,,0.08,WUHU216HW,2013-06-19 00:46:00,
2013-06-18 20:56:00,69.0,64.6,29.92,WSW,248,0.0,0.0,86,0.00,,,0.08,WUHU216HW,2013-06-19 00:56:00,
2013-06-18 21:02:00,68.9,64.5,29.92,WSW,248,0.0,0.0,86,0.00,,,0.08,WUHU216HW,2013-06-19 01:02:00,
2013-06-18 21:07:00,68.7,64.0,29.92,WSW,248,0.0,0.0,85,0.00,,,0.08,WUHU216HW,2013-06-19 01:07:00,
2013-06-18 21:13:00,68.5,63.8,29.92,WSW,248,0.0,0.0,85,0.00,,,0.08,WUHU216HW,2013-06-19 01:13:00,
2013-06-18 21:18:00,68.3,63.6,29.92,WSW,248,0.0,0.0,85,0.00,,,0.08,WUHU216HW,2013-06-19 01:18:00,
2013-06-18 21:24:00,68.1,63.4,29.92,WSW,248,0.0,0.0,85,0.00,,,0.08,WUHU216HW,2013-06-19 01:24:00,
2013-06-18 21:30:00,67.8,63.4,29.93,WSW,248,0.0,0.0,86,0.00,,,0.08,WUHU216HW,2013-06-19 01:30:00,
2013-06-18 21:35:00,67.6,63.2,29.93,WSW,248,0.0,0.0,86,0.00,,,0.08,WUHU216HW,2013-06-19 01:35:00,
2013-06-18 21:41:00,67.2,62.9,29.93,WSW,248,0.0,0.0,86,0.00,,,0.08,WUHU216HW,2013-06-19 01:41:00,
2013-06-18 21:46:00,67.2,62.9,29.93,WSW,248,0.0,0.0,86,0.00,,,0.08,WUHU216HW,2013-06-19 01:46:00,
2013-06-18 21:51:00,67.1,62.7,29.93,WSW,248,0.0,0.0,86,0.00,,,0.08,WUHU216HW,2013-06-19 01:51:00,
2013-06-18 21:57:00,66.9,62.5,29.94,WSW,248,0.0,0.0,86,0.00,,,0.08,WUHU216HW,2013-06-19 01:57:00,
2013-06-18 22:02:00,66.7,62.3,29.94,WSW,248,0.0,0.0,86,0.00,,,0.08,WUHU216HW,2013-06-19 02:02:00,
2013-06-18 22:07:00,66.7,62.7,29.95,WSW,248,0.0,0.0,87,0.00,,,0.08,WUHU216HW,2013-06-19 02:07:00,
2013-06-18 22:12:00,66.5,62.5,29.95,WSW,248,0.0,0.0,87,0.00,,,0.08,WUHU216HW,2013-06-19 02:12:00,
2013-06-18 22:17:00,66.3,62.3,29.95,WSW,248,0.0,0.0,87,0.00,,,0.08,WUHU216HW,2013-06-19 02:17:00,
2013-06-18 22:22:00,66.2,62.1,29.96,WSW,248,0.0,0.0,87,0.00,,,0.08,WUHU216HW,2013-06-19 02:22:00,
2013-06-18 22:28:00,66.0,61.9,29.95,WSW,248,0.0,0.0,87,0.00,,,0.08,WUHU216HW,2013-06-19 02:28:00,
2013-06-18 22:33:00,66.0,61.9,29.96,WSW,248,0.0,0.0,87,0.00,,,0.08,WUHU216HW,2013-06-19 02:33:00,
2013-06-18 22:39:00,66.0,61.9,29.95,WSW,248,0.0,0.0,87,0.00,,,0.08,WUHU216HW,2013-06-19 02:39:00,
2013-06-18 22:45:00,66.0,61.9,29.96,WSW,248,0.0,0.0,87,0.00,,,0.08,WUHU216HW,2013-06-19 02:45:00,
2013-06-18 22:56:00,65.8,61.8,29.96,WSW,248,0.0,0.0,87,0.00,,,0.08,WUHU216HW,2013-06-19 02:56:00,
2013-06-18 23:01:00,66.0,62.3,29.96,WSW,248,0.0,0.0,88,0.00,,,0.08,WUHU216HW,2013-06-19 03:01:00,
2013-06-18 23:07:00,66.0,62.3,29.96,WSW,248,0.0,0.0,88,0.00,,,0.08,WUHU216HW,2013-06-19 03:07:00,
2013-06-18 23:13:00,66.0,62.3,29.96,WSW,248,0.0,0.0,88,0.00,,,0.08,WUHU216HW,2013-06-19 03:13:00,
2013-06-18 23:18:00,66.0,62.3,29.96,WSW,248,0.0,0.0,88,0.00,,,0.08,WUHU216HW,2013-06-19 03:18:00,
2013-06-18 23:24:00,66.0,62.6,29.96,WSW,248,0.0,0.0,89,0.00,,,0.08,WUHU216HW,2013-06-19 03:24:00,
2013-06-18 23:30:00,66.0,62.6,29.96,NW,315,0.0,0.0,89,0.00,,,0.08,WUHU216HW,2013-06-19 03:30:00,
2013-06-18 23:35:00,66.0,62.6,29.96,NW,315,0.0,0.0,89,0.00,,,0.08,WUHU216HW,2013-06-19 03:35:00,
2013-06-18 23:40:00,66.0,62.6,29.96,NW,315,0.0,0.0,89,0.00,,,0.08,WUHU216HW,2013-06-19 03:40:00,
2013-06-18 23:46:00,66.0,62.6,29.97,NNW,338,0.0,0.0,89,0.00,,,0.08,WUHU216HW,2013-06-19 03:46:00,
2013-06-18 23:51:00,65.8,62.4,29.97,NNW,338,0.0,0.0,89,0.00,,,0.08,WUHU216HW,2013-06-19 03:51:00,
2013-06-18 23:57:00,65.8,62.4,29.97,North,0,0.0,0.0,89,0.00,,,0.08,WUHU216HW,2013-06-19 03:57:00,